sensor_id;sensor_type;location;lat;lon;timestamp;P1;durP1;ratioP1;P2;durP2;ratioP2
44078;SDS011;29744;49.078;12.878;2023-04-25T00:02:12;1.63;;;0.75;;
44078;SDS011;29744;49.078;12.878;2023-04-25T00:07:13;2.83;;;1.00;;
44078;SDS011;29744;49.078;12.878;2023-04-25T00:12:13;1.75;;;0.80;;
44078;SDS011;29744;49.078;12.878;2023-04-25T00:17:13;1.30;;;0.73;;
44078;SDS011;29744;49.078;12.878;2023-04-25T00:22:14;1.77;;;0.70;;
44078;SDS011;29744;49.078;12.878;2023-04-25T00:27:14;1.50;;;0.70;;
44078;SDS011;29744;49.078;12.878;2023-04-25T00:32:14;1.30;;;0.73;;
44078;SDS011;29744;49.078;12.878;2023-04-25T00:37:15;1.73;;;0.70;;
44078;SDS011;29744;49.078;12.878;2023-04-25T00:42:15;1.02;;;0.60;;
44078;SDS011;29744;49.078;12.878;2023-04-25T00:47:16;1.08;;;0.70;;
44078;SDS011;29744;49.078;12.878;2023-04-25T00:52:16;0.90;;;0.70;;
44078;SDS011;29744;49.078;12.878;2023-04-25T00:57:17;1.08;;;0.70;;
44078;SDS011;29744;49.078;12.878;2023-04-25T01:02:17;1.05;;;0.68;;
44078;SDS011;29744;49.078;12.878;2023-04-25T01:07:18;1.42;;;0.70;;
44078;SDS011;29744;49.078;12.878;2023-04-25T01:12:18;1.20;;;0.60;;
44078;SDS011;29744;49.078;12.878;2023-04-25T01:17:19;1.83;;;0.70;;
44078;SDS011;29744;49.078;12.878;2023-04-25T01:22:20;1.83;;;0.90;;
44078;SDS011;29744;49.078;12.878;2023-04-25T01:27:20;1.15;;;0.60;;
44078;SDS011;29744;49.078;12.878;2023-04-25T01:32:22;0.80;;;0.60;;
44078;SDS011;29744;49.078;12.878;2023-04-25T01:37:23;1.05;;;0.60;;
44078;SDS011;29744;49.078;12.878;2023-04-25T01:42:24;1.06;;;0.66;;
44078;SDS011;29744;49.078;12.878;2023-04-25T01:47:24;1.63;;;0.80;;
44078;SDS011;29744;49.078;12.878;2023-04-25T01:52:24;1.30;;;0.70;;
44078;SDS011;29744;49.078;12.878;2023-04-25T01:57:25;2.17;;;0.85;;
44078;SDS011;29744;49.078;12.878;2023-04-25T02:02:25;0.98;;;0.63;;
44078;SDS011;29744;49.078;12.878;2023-04-25T02:07:26;0.65;;;0.57;;
44078;SDS011;29744;49.078;12.878;2023-04-25T02:12:27;1.33;;;0.68;;
44078;SDS011;29744;49.078;12.878;2023-04-25T02:17:28;1.08;;;0.70;;
44078;SDS011;29744;49.078;12.878;2023-04-25T02:22:28;0.65;;;0.55;;
44078;SDS011;29744;49.078;12.878;2023-04-25T02:27:30;0.73;;;0.60;;
44078;SDS011;29744;49.078;12.878;2023-04-25T02:32:30;0.73;;;0.50;;
44078;SDS011;29744;49.078;12.878;2023-04-25T02:37:31;1.30;;;0.70;;
44078;SDS011;29744;49.078;12.878;2023-04-25T02:42:32;1.33;;;0.70;;
44078;SDS011;29744;49.078;12.878;2023-04-25T02:47:32;0.77;;;0.50;;
44078;SDS011;29744;49.078;12.878;2023-04-25T02:52:33;1.30;;;0.68;;
44078;SDS011;29744;49.078;12.878;2023-04-25T02:57:33;0.70;;;0.50;;
44078;SDS011;29744;49.078;12.878;2023-04-25T03:02:33;1.00;;;0.50;;
44078;SDS011;29744;49.078;12.878;2023-04-25T03:07:33;1.33;;;0.63;;
44078;SDS011;29744;49.078;12.878;2023-04-25T03:12:34;0.90;;;0.60;;
44078;SDS011;29744;49.078;12.878;2023-04-25T03:17:34;1.42;;;0.80;;
44078;SDS011;29744;49.078;12.878;2023-04-25T03:22:35;1.50;;;0.60;;
44078;SDS011;29744;49.078;12.878;2023-04-25T03:27:35;1.12;;;0.66;;
44078;SDS011;29744;49.078;12.878;2023-04-25T03:32:35;0.73;;;0.50;;
44078;SDS011;29744;49.078;12.878;2023-04-25T03:37:36;0.90;;;0.50;;
44078;SDS011;29744;49.078;12.878;2023-04-25T03:42:36;0.90;;;0.52;;
44078;SDS011;29744;49.078;12.878;2023-04-25T03:47:36;1.13;;;0.60;;
44078;SDS011;29744;49.078;12.878;2023-04-25T03:52:36;0.82;;;0.50;;
44078;SDS011;29744;49.078;12.878;2023-04-25T03:57:37;1.25;;;0.70;;
44078;SDS011;29744;49.078;12.878;2023-04-25T04:02:37;0.73;;;0.50;;
44078;SDS011;29744;49.078;12.878;2023-04-25T04:07:38;1.23;;;0.57;;
44078;SDS011;29744;49.078;12.878;2023-04-25T04:12:40;0.73;;;0.60;;
44078;SDS011;29744;49.078;12.878;2023-04-25T04:17:40;1.14;;;0.58;;
44078;SDS011;29744;49.078;12.878;2023-04-25T04:22:41;1.25;;;0.77;;
44078;SDS011;29744;49.078;12.878;2023-04-25T04:27:41;0.63;;;0.50;;
44078;SDS011;29744;49.078;12.878;2023-04-25T04:32:42;0.95;;;0.60;;
44078;SDS011;29744;49.078;12.878;2023-04-25T04:37:42;0.63;;;0.40;;
44078;SDS011;29744;49.078;12.878;2023-04-25T04:42:44;0.95;;;0.60;;
44078;SDS011;29744;49.078;12.878;2023-04-25T04:47:48;1.23;;;0.57;;
44078;SDS011;29744;49.078;12.878;2023-04-25T04:52:48;0.68;;;0.50;;
44078;SDS011;29744;49.078;12.878;2023-04-25T04:57:48;1.00;;;0.60;;
44078;SDS011;29744;49.078;12.878;2023-04-25T05:02:49;0.68;;;0.45;;
44078;SDS011;29744;49.078;12.878;2023-04-25T05:07:49;1.17;;;0.60;;
44078;SDS011;29744;49.078;12.878;2023-04-25T05:12:49;0.88;;;0.50;;
44078;SDS011;29744;49.078;12.878;2023-04-25T05:17:49;0.85;;;0.50;;
44078;SDS011;29744;49.078;12.878;2023-04-25T05:22:50;0.95;;;0.50;;
44078;SDS011;29744;49.078;12.878;2023-04-25T05:27:50;0.70;;;0.43;;
44078;SDS011;29744;49.078;12.878;2023-04-25T05:32:52;0.63;;;0.40;;
44078;SDS011;29744;49.078;12.878;2023-04-25T05:37:52;1.33;;;0.68;;
44078;SDS011;29744;49.078;12.878;2023-04-25T05:42:52;0.40;;;0.40;;
44078;SDS011;29744;49.078;12.878;2023-04-25T05:47:53;1.00;;;0.47;;
44078;SDS011;29744;49.078;12.878;2023-04-25T05:52:53;1.00;;;0.43;;
44078;SDS011;29744;49.078;12.878;2023-04-25T05:57:53;0.80;;;0.57;;
44078;SDS011;29744;49.078;12.878;2023-04-25T06:02:53;0.40;;;0.40;;
44078;SDS011;29744;49.078;12.878;2023-04-25T06:07:54;0.57;;;0.50;;
44078;SDS011;29744;49.078;12.878;2023-04-25T06:12:54;0.85;;;0.40;;
44078;SDS011;29744;49.078;12.878;2023-04-25T06:17:55;0.35;;;0.30;;
44078;SDS011;29744;49.078;12.878;2023-04-25T06:22:55;0.57;;;0.40;;
44078;SDS011;29744;49.078;12.878;2023-04-25T06:27:55;0.80;;;0.52;;
44078;SDS011;29744;49.078;12.878;2023-04-25T06:32:56;1.10;;;0.57;;
44078;SDS011;29744;49.078;12.878;2023-04-25T06:37:56;0.52;;;0.40;;
44078;SDS011;29744;49.078;12.878;2023-04-25T06:42:56;0.52;;;0.50;;
44078;SDS011;29744;49.078;12.878;2023-04-25T06:47:56;0.82;;;0.50;;
44078;SDS011;29744;49.078;12.878;2023-04-25T06:52:57;0.70;;;0.30;;
44078;SDS011;29744;49.078;12.878;2023-04-25T06:57:57;0.88;;;0.40;;
44078;SDS011;29744;49.078;12.878;2023-04-25T07:02:57;0.52;;;0.40;;
44078;SDS011;29744;49.078;12.878;2023-04-25T07:07:57;0.47;;;0.40;;
44078;SDS011;29744;49.078;12.878;2023-04-25T07:12:58;1.08;;;0.40;;
44078;SDS011;29744;49.078;12.878;2023-04-25T07:17:58;0.30;;;0.30;;
44078;SDS011;29744;49.078;12.878;2023-04-25T07:22:58;0.45;;;0.43;;
44078;SDS011;29744;49.078;12.878;2023-04-25T07:27:58;0.90;;;0.43;;
44078;SDS011;29744;49.078;12.878;2023-04-25T07:32:59;0.70;;;0.50;;
44078;SDS011;29744;49.078;12.878;2023-04-25T07:37:59;0.80;;;0.50;;
44078;SDS011;29744;49.078;12.878;2023-04-25T07:42:59;0.38;;;0.30;;
44078;SDS011;29744;49.078;12.878;2023-04-25T07:48:00;0.40;;;0.30;;
44078;SDS011;29744;49.078;12.878;2023-04-25T07:53:00;0.60;;;0.40;;
44078;SDS011;29744;49.078;12.878;2023-04-25T07:58:00;0.40;;;0.38;;
44078;SDS011;29744;49.078;12.878;2023-04-25T08:03:00;0.50;;;0.40;;
44078;SDS011;29744;49.078;12.878;2023-04-25T08:08:01;0.55;;;0.40;;
44078;SDS011;29744;49.078;12.878;2023-04-25T08:13:02;0.50;;;0.47;;
44078;SDS011;29744;49.078;12.878;2023-04-25T08:18:02;0.50;;;0.32;;
44078;SDS011;29744;49.078;12.878;2023-04-25T08:23:05;0.60;;;0.50;;
44078;SDS011;29744;49.078;12.878;2023-04-25T08:28:05;0.65;;;0.50;;
44078;SDS011;29744;49.078;12.878;2023-04-25T08:33:06;0.57;;;0.50;;
44078;SDS011;29744;49.078;12.878;2023-04-25T08:38:06;0.60;;;0.50;;
44078;SDS011;29744;49.078;12.878;2023-04-25T08:43:06;0.25;;;0.25;;
44078;SDS011;29744;49.078;12.878;2023-04-25T08:48:12;0.63;;;0.40;;
44078;SDS011;29744;49.078;12.878;2023-04-25T08:53:14;0.70;;;0.40;;
44078;SDS011;29744;49.078;12.878;2023-04-25T08:58:18;0.43;;;0.30;;
44078;SDS011;29744;49.078;12.878;2023-04-25T09:03:19;0.30;;;0.30;;
44078;SDS011;29744;49.078;12.878;2023-04-25T09:08:20;0.30;;;0.30;;
44078;SDS011;29744;49.078;12.878;2023-04-25T09:13:24;0.47;;;0.32;;
44078;SDS011;29744;49.078;12.878;2023-04-25T09:18:29;0.47;;;0.40;;
44078;SDS011;29744;49.078;12.878;2023-04-25T09:23:31;0.50;;;0.38;;
44078;SDS011;29744;49.078;12.878;2023-04-25T09:28:39;0.30;;;0.30;;
44078;SDS011;29744;49.078;12.878;2023-04-25T09:33:40;0.40;;;0.40;;
44078;SDS011;29744;49.078;12.878;2023-04-25T09:38:43;0.43;;;0.40;;
44078;SDS011;29744;49.078;12.878;2023-04-25T09:43:45;0.45;;;0.32;;
44078;SDS011;29744;49.078;12.878;2023-04-25T09:48:50;0.77;;;0.50;;
44078;SDS011;29744;49.078;12.878;2023-04-25T09:53:51;0.45;;;0.45;;
44078;SDS011;29744;49.078;12.878;2023-04-25T09:58:51;0.82;;;0.40;;
44078;SDS011;29744;49.078;12.878;2023-04-25T10:03:54;0.40;;;0.40;;
44078;SDS011;29744;49.078;12.878;2023-04-25T10:08:56;0.30;;;0.30;;
44078;SDS011;29744;49.078;12.878;2023-04-25T10:13:58;0.43;;;0.40;;
44078;SDS011;29744;49.078;12.878;2023-04-25T10:19:00;0.20;;;0.20;;
44078;SDS011;29744;49.078;12.878;2023-04-25T10:24:00;0.52;;;0.22;;
44078;SDS011;29744;49.078;12.878;2023-04-25T10:29:02;0.40;;;0.30;;
44078;SDS011;29744;49.078;12.878;2023-04-25T10:34:03;0.57;;;0.47;;
44078;SDS011;29744;49.078;12.878;2023-04-25T10:39:05;0.93;;;0.50;;
44078;SDS011;29744;49.078;12.878;2023-04-25T10:44:08;0.30;;;0.30;;
44078;SDS011;29744;49.078;12.878;2023-04-25T10:49:08;0.47;;;0.40;;
44078;SDS011;29744;49.078;12.878;2023-04-25T10:54:09;0.45;;;0.40;;
44078;SDS011;29744;49.078;12.878;2023-04-25T10:59:13;0.45;;;0.40;;
44078;SDS011;29744;49.078;12.878;2023-04-25T11:04:20;0.47;;;0.40;;
44078;SDS011;29744;49.078;12.878;2023-04-25T11:09:25;0.50;;;0.38;;
44078;SDS011;29744;49.078;12.878;2023-04-25T11:14:25;0.55;;;0.40;;
44078;SDS011;29744;49.078;12.878;2023-04-25T11:19:27;0.52;;;0.43;;
44078;SDS011;29744;49.078;12.878;2023-04-25T11:24:28;0.50;;;0.40;;
44078;SDS011;29744;49.078;12.878;2023-04-25T11:29:30;0.32;;;0.30;;
44078;SDS011;29744;49.078;12.878;2023-04-25T11:34:32;0.60;;;0.35;;
44078;SDS011;29744;49.078;12.878;2023-04-25T11:39:33;0.45;;;0.38;;
44078;SDS011;29744;49.078;12.878;2023-04-25T11:44:33;0.40;;;0.40;;
44078;SDS011;29744;49.078;12.878;2023-04-25T11:49:33;0.45;;;0.30;;
44078;SDS011;29744;49.078;12.878;2023-04-25T11:54:36;0.93;;;0.50;;
44078;SDS011;29744;49.078;12.878;2023-04-25T11:59:37;0.60;;;0.40;;
44078;SDS011;29744;49.078;12.878;2023-04-25T12:04:37;0.40;;;0.38;;
44078;SDS011;29744;49.078;12.878;2023-04-25T12:09:41;0.22;;;0.22;;
44078;SDS011;29744;49.078;12.878;2023-04-25T12:14:41;0.52;;;0.40;;
44078;SDS011;29744;49.078;12.878;2023-04-25T12:19:48;0.60;;;0.30;;
44078;SDS011;29744;49.078;12.878;2023-04-25T12:24:48;0.63;;;0.40;;
44078;SDS011;29744;49.078;12.878;2023-04-25T12:29:50;0.57;;;0.40;;
44078;SDS011;29744;49.078;12.878;2023-04-25T12:34:51;0.65;;;0.40;;
44078;SDS011;29744;49.078;12.878;2023-04-25T12:39:52;0.38;;;0.30;;
44078;SDS011;29744;49.078;12.878;2023-04-25T12:44:52;0.55;;;0.30;;
44078;SDS011;29744;49.078;12.878;2023-04-25T12:49:52;0.28;;;0.28;;
44078;SDS011;29744;49.078;12.878;2023-04-25T12:54:52;0.30;;;0.30;;
44078;SDS011;29744;49.078;12.878;2023-04-25T12:59:53;0.63;;;0.43;;
44078;SDS011;29744;49.078;12.878;2023-04-25T13:04:53;0.30;;;0.30;;
44078;SDS011;29744;49.078;12.878;2023-04-25T13:09:53;0.32;;;0.30;;
44078;SDS011;29744;49.078;12.878;2023-04-25T13:14:53;0.30;;;0.30;;
44078;SDS011;29744;49.078;12.878;2023-04-25T13:19:54;0.45;;;0.30;;
44078;SDS011;29744;49.078;12.878;2023-04-25T13:24:54;0.30;;;0.30;;
44078;SDS011;29744;49.078;12.878;2023-04-25T13:29:55;0.38;;;0.30;;
44078;SDS011;29744;49.078;12.878;2023-04-25T13:34:55;0.30;;;0.30;;
44078;SDS011;29744;49.078;12.878;2023-04-25T13:39:55;0.17;;;0.17;;
44078;SDS011;29744;49.078;12.878;2023-04-25T13:44:56;0.63;;;0.40;;
44078;SDS011;29744;49.078;12.878;2023-04-25T13:49:56;0.70;;;0.40;;
44078;SDS011;29744;49.078;12.878;2023-04-25T13:54:57;0.25;;;0.25;;
44078;SDS011;29744;49.078;12.878;2023-04-25T13:59:58;0.30;;;0.30;;
44078;SDS011;29744;49.078;12.878;2023-04-25T14:04:59;0.30;;;0.30;;
44078;SDS011;29744;49.078;12.878;2023-04-25T14:09:59;0.40;;;0.30;;
44078;SDS011;29744;49.078;12.878;2023-04-25T14:14:59;0.30;;;0.30;;
44078;SDS011;29744;49.078;12.878;2023-04-25T14:20:00;0.40;;;0.40;;
44078;SDS011;29744;49.078;12.878;2023-04-25T14:25:00;0.47;;;0.43;;
44078;SDS011;29744;49.078;12.878;2023-04-25T14:30:00;0.30;;;0.30;;
44078;SDS011;29744;49.078;12.878;2023-04-25T14:35:01;0.40;;;0.30;;
44078;SDS011;29744;49.078;12.878;2023-04-25T14:40:01;0.40;;;0.32;;
44078;SDS011;29744;49.078;12.878;2023-04-25T14:45:02;0.50;;;0.30;;
44078;SDS011;29744;49.078;12.878;2023-04-25T14:50:04;0.40;;;0.30;;
44078;SDS011;29744;49.078;12.878;2023-04-25T14:55:05;0.20;;;0.20;;
44078;SDS011;29744;49.078;12.878;2023-04-25T15:00:07;0.45;;;0.30;;
44078;SDS011;29744;49.078;12.878;2023-04-25T15:05:09;0.55;;;0.30;;
44078;SDS011;29744;49.078;12.878;2023-04-25T15:10:09;0.40;;;0.20;;
44078;SDS011;29744;49.078;12.878;2023-04-25T15:15:15;0.77;;;0.30;;
44078;SDS011;29744;49.078;12.878;2023-04-25T15:20:16;0.30;;;0.28;;
44078;SDS011;29744;49.078;12.878;2023-04-25T15:25:17;0.35;;;0.32;;
44078;SDS011;29744;49.078;12.878;2023-04-25T15:30:18;0.60;;;0.32;;
44078;SDS011;29744;49.078;12.878;2023-04-25T15:35:19;0.20;;;0.20;;
44078;SDS011;29744;49.078;12.878;2023-04-25T15:40:19;0.30;;;0.30;;
44078;SDS011;29744;49.078;12.878;2023-04-25T15:45:21;0.30;;;0.30;;
44078;SDS011;29744;49.078;12.878;2023-04-25T15:50:24;0.30;;;0.30;;
44078;SDS011;29744;49.078;12.878;2023-04-25T15:55:25;0.40;;;0.32;;
44078;SDS011;29744;49.078;12.878;2023-04-25T16:00:25;0.30;;;0.30;;
44078;SDS011;29744;49.078;12.878;2023-04-25T16:05:26;0.45;;;0.30;;
44078;SDS011;29744;49.078;12.878;2023-04-25T16:10:26;0.57;;;0.32;;
44078;SDS011;29744;49.078;12.878;2023-04-25T16:15:27;0.35;;;0.35;;
44078;SDS011;29744;49.078;12.878;2023-04-25T16:20:27;0.45;;;0.30;;
44078;SDS011;29744;49.078;12.878;2023-04-25T16:25:27;0.65;;;0.32;;
44078;SDS011;29744;49.078;12.878;2023-04-25T16:30:28;0.36;;;0.30;;
44078;SDS011;29744;49.078;12.878;2023-04-25T16:35:28;0.22;;;0.20;;
44078;SDS011;29744;49.078;12.878;2023-04-25T16:40:31;0.20;;;0.20;;
44078;SDS011;29744;49.078;12.878;2023-04-25T16:45:31;0.38;;;0.38;;
44078;SDS011;29744;49.078;12.878;2023-04-25T16:50:31;0.57;;;0.40;;
44078;SDS011;29744;49.078;12.878;2023-04-25T16:55:32;0.30;;;0.30;;
44078;SDS011;29744;49.078;12.878;2023-04-25T17:00:32;0.35;;;0.32;;
44078;SDS011;29744;49.078;12.878;2023-04-25T17:05:33;0.35;;;0.28;;
44078;SDS011;29744;49.078;12.878;2023-04-25T17:10:34;0.20;;;0.20;;
44078;SDS011;29744;49.078;12.878;2023-04-25T17:15:34;0.20;;;0.20;;
44078;SDS011;29744;49.078;12.878;2023-04-25T17:20:34;0.20;;;0.20;;
44078;SDS011;29744;49.078;12.878;2023-04-25T17:25:35;0.30;;;0.30;;
44078;SDS011;29744;49.078;12.878;2023-04-25T17:30:35;0.60;;;0.40;;
44078;SDS011;29744;49.078;12.878;2023-04-25T17:35:35;0.35;;;0.30;;
44078;SDS011;29744;49.078;12.878;2023-04-25T17:40:36;0.43;;;0.32;;
44078;SDS011;29744;49.078;12.878;2023-04-25T17:45:36;0.20;;;0.20;;
44078;SDS011;29744;49.078;12.878;2023-04-25T17:50:36;0.25;;;0.22;;
44078;SDS011;29744;49.078;12.878;2023-04-25T17:55:37;0.75;;;0.32;;
44078;SDS011;29744;49.078;12.878;2023-04-25T18:00:37;0.63;;;0.30;;
44078;SDS011;29744;49.078;12.878;2023-04-25T18:05:38;0.30;;;0.30;;
44078;SDS011;29744;49.078;12.878;2023-04-25T18:10:38;0.30;;;0.30;;
44078;SDS011;29744;49.078;12.878;2023-04-25T18:15:39;0.75;;;0.25;;
44078;SDS011;29744;49.078;12.878;2023-04-25T18:20:42;0.50;;;0.30;;
44078;SDS011;29744;49.078;12.878;2023-04-25T18:25:43;0.40;;;0.40;;
44078;SDS011;29744;49.078;12.878;2023-04-25T18:30:44;0.20;;;0.20;;
44078;SDS011;29744;49.078;12.878;2023-04-25T18:35:46;0.40;;;0.35;;
44078;SDS011;29744;49.078;12.878;2023-04-25T18:40:46;0.32;;;0.30;;
44078;SDS011;29744;49.078;12.878;2023-04-25T18:45:47;0.35;;;0.22;;
44078;SDS011;29744;49.078;12.878;2023-04-25T18:50:48;0.38;;;0.30;;
44078;SDS011;29744;49.078;12.878;2023-04-25T18:55:48;0.50;;;0.40;;
44078;SDS011;29744;49.078;12.878;2023-04-25T19:00:48;0.25;;;0.22;;
44078;SDS011;29744;49.078;12.878;2023-04-25T19:05:49;0.57;;;0.35;;
44078;SDS011;29744;49.078;12.878;2023-04-25T19:10:49;0.25;;;0.25;;
44078;SDS011;29744;49.078;12.878;2023-04-25T19:15:52;0.35;;;0.30;;
44078;SDS011;29744;49.078;12.878;2023-04-25T19:20:52;0.30;;;0.30;;
44078;SDS011;29744;49.078;12.878;2023-04-25T19:25:53;0.20;;;0.20;;
44078;SDS011;29744;49.078;12.878;2023-04-25T19:30:53;0.40;;;0.30;;
44078;SDS011;29744;49.078;12.878;2023-04-25T19:35:53;0.20;;;0.20;;
44078;SDS011;29744;49.078;12.878;2023-04-25T19:40:53;0.35;;;0.30;;
44078;SDS011;29744;49.078;12.878;2023-04-25T19:45:54;0.50;;;0.38;;
44078;SDS011;29744;49.078;12.878;2023-04-25T19:50:54;0.52;;;0.30;;
44078;SDS011;29744;49.078;12.878;2023-04-25T19:55:54;0.20;;;0.20;;
44078;SDS011;29744;49.078;12.878;2023-04-25T20:00:55;0.47;;;0.40;;
44078;SDS011;29744;49.078;12.878;2023-04-25T20:05:56;0.40;;;0.38;;
44078;SDS011;29744;49.078;12.878;2023-04-25T20:10:56;0.55;;;0.35;;
44078;SDS011;29744;49.078;12.878;2023-04-25T20:15:57;0.40;;;0.30;;
44078;SDS011;29744;49.078;12.878;2023-04-25T20:20:57;0.35;;;0.30;;
44078;SDS011;29744;49.078;12.878;2023-04-25T20:25:57;0.30;;;0.30;;
44078;SDS011;29744;49.078;12.878;2023-04-25T20:30:58;0.48;;;0.30;;
44078;SDS011;29744;49.078;12.878;2023-04-25T20:35:58;0.20;;;0.20;;
44078;SDS011;29744;49.078;12.878;2023-04-25T20:40:58;0.30;;;0.30;;
44078;SDS011;29744;49.078;12.878;2023-04-25T20:45:59;0.22;;;0.22;;
44078;SDS011;29744;49.078;12.878;2023-04-25T20:50:59;0.20;;;0.20;;
44078;SDS011;29744;49.078;12.878;2023-04-25T20:56:00;0.25;;;0.25;;
44078;SDS011;29744;49.078;12.878;2023-04-25T21:01:01;0.40;;;0.40;;
44078;SDS011;29744;49.078;12.878;2023-04-25T21:06:03;0.35;;;0.30;;
44078;SDS011;29744;49.078;12.878;2023-04-25T21:11:03;0.35;;;0.30;;
44078;SDS011;29744;49.078;12.878;2023-04-25T21:16:03;0.45;;;0.30;;
44078;SDS011;29744;49.078;12.878;2023-04-25T21:21:04;0.20;;;0.20;;
44078;SDS011;29744;49.078;12.878;2023-04-25T21:26:05;1.50;;;0.40;;
44078;SDS011;29744;49.078;12.878;2023-04-25T21:31:05;1.67;;;0.40;;
44078;SDS011;29744;49.078;12.878;2023-04-25T21:36:05;0.40;;;0.30;;
44078;SDS011;29744;49.078;12.878;2023-04-25T21:41:07;0.38;;;0.22;;
44078;SDS011;29744;49.078;12.878;2023-04-25T21:46:07;0.60;;;0.40;;
44078;SDS011;29744;49.078;12.878;2023-04-25T21:51:07;0.50;;;0.32;;
44078;SDS011;29744;49.078;12.878;2023-04-25T21:56:08;0.30;;;0.20;;
44078;SDS011;29744;49.078;12.878;2023-04-25T22:01:08;0.28;;;0.28;;
44078;SDS011;29744;49.078;12.878;2023-04-25T22:06:09;0.45;;;0.40;;
44078;SDS011;29744;49.078;12.878;2023-04-25T22:11:09;0.38;;;0.20;;
44078;SDS011;29744;49.078;12.878;2023-04-25T22:16:09;0.50;;;0.22;;
44078;SDS011;29744;49.078;12.878;2023-04-25T22:21:11;0.28;;;0.28;;
44078;SDS011;29744;49.078;12.878;2023-04-25T22:26:11;0.20;;;0.20;;
44078;SDS011;29744;49.078;12.878;2023-04-25T22:31:12;0.38;;;0.20;;
44078;SDS011;29744;49.078;12.878;2023-04-25T22:36:12;0.30;;;0.30;;
44078;SDS011;29744;49.078;12.878;2023-04-25T22:41:12;0.30;;;0.30;;
44078;SDS011;29744;49.078;12.878;2023-04-25T22:46:14;0.30;;;0.20;;
44078;SDS011;29744;49.078;12.878;2023-04-25T22:51:15;0.30;;;0.30;;
44078;SDS011;29744;49.078;12.878;2023-04-25T22:56:16;0.32;;;0.32;;
44078;SDS011;29744;49.078;12.878;2023-04-25T23:01:16;0.50;;;0.30;;
44078;SDS011;29744;49.078;12.878;2023-04-25T23:06:17;0.32;;;0.30;;
44078;SDS011;29744;49.078;12.878;2023-04-25T23:11:17;0.50;;;0.40;;
44078;SDS011;29744;49.078;12.878;2023-04-25T23:16:19;0.30;;;0.20;;
44078;SDS011;29744;49.078;12.878;2023-04-25T23:21:19;0.20;;;0.17;;
44078;SDS011;29744;49.078;12.878;2023-04-25T23:26:20;0.30;;;0.28;;
44078;SDS011;29744;49.078;12.878;2023-04-25T23:31:21;0.47;;;0.32;;
44078;SDS011;29744;49.078;12.878;2023-04-25T23:36:21;0.50;;;0.40;;
44078;SDS011;29744;49.078;12.878;2023-04-25T23:41:21;0.30;;;0.30;;
44078;SDS011;29744;49.078;12.878;2023-04-25T23:46:22;0.20;;;0.20;;
44078;SDS011;29744;49.078;12.878;2023-04-25T23:51:22;0.35;;;0.30;;
44078;SDS011;29744;49.078;12.878;2023-04-25T23:56:23;0.40;;;0.30;;
